Terminal Aerodrome Forecast
Issued by NWS

Current Version | Previous Version | Text Only | Print | Product List | Glossary On
Versions: 1 2 3 4 5 6 7 8 9 10 11 12 13 14 15
000
FTUS42 TJSJ 302300
TAFIST
TAF
TIST 302335Z 3100/3124 23011KT P6SM -RA SCT025 BKN050 BKN100
     FM310200 20005KT P6SM FEW025 SCT050 SCT100
     FM310900 18005KT P6SM VCSH SCT022 BKN050
     FM311500 19011KT P6SM SCT025 SCT050
      AMD NOT SKED=

USA.gov is the U.S. government's official web portal to all federal, state and local government web resources and services.